Washington, Pennsylvania
Current Conditions -  °F | °C
As of 3:06 AM on Sunday 21 Dec 2014 (Local Time) from KAGC Reporting Station
Overcast Overcast  
Wind Chill: 28°   Ceiling: 3000
Heat Index: 28°   Visibility: 8mi
Dew Point: 18°   Wind: 0mph
Humidity: 66%   Direction: NA
Pressure: 30.26"   Gusts: NA
Location:  40.17°N, 80.25°W
Report Text: KAGC 210806Z 00000KT 8SM OVC030 M02/M08 A3026 RMK AO2 T10221078
Loading
Personal Weather Stations






























Interactive Weather Map New forecast layout! Learn more

10-Day Weather Forecast

Advertisements
Track Severe Weather on mobile